Station: Gove Airport  

  Atmospheric Gas Attenuation - ITU Rec 676-11   ----------------- dB/100km -----------------
Date Time Temp RH % AH g/m3 Dew Point Wind Direction Speed kph Gust kph Barometer mB Rainfall Since 9am 24GHz 47GHz 76GHz 122GHz 134GHz 241GHz
07/05 03:40 25.2 84 19.55 22.3 15 17 1010.8 13.4 42.1 40.9 79.4 210.2 232.3 807.0
07/05 03:30 25.4 82 19.3 22.1 17 26 1010.8 13.4 41.6 40.3 78.0 206.5 227.8 791.4
07/05 03:20 25.5 82 19.41 22.2 17 19 1010.8 13.4 41.8 40.5 78.5 207.6 229.2 796.2
07/05 03:10 25.6 82 19.52 22.3 15 17 1010.9 13.4 42.0 40.6 78.9 208.7 230.6 801.2
07/05 03:00 25.7 81 19.39 22.2 17 22 1011 13.4 41.7 40.3 78.2 206.8 228.3 793.2
07/05 02:50 25.7 81 19.39 22.2 17 20 1011 13.4 41.7 40.3 78.2 206.8 228.3 793.2
07/05 02:40 25.8 81 19.5 22.3 19 20 1011 13.4 42.0 40.5 78.6 208.0 229.7 798.0
07/05 02:30 25.8 82 19.74 22.5 19 22 1011 13.4 42.5 41.0 79.7 211.0 233.4 810.9
07/05 02:20 25.8 82 19.74 22.5 19 22 1011.1 13.4 42.5 41.0 79.7 211.0 233.4 811.0
07/05 02:10 25.9 82 19.85 22.6 20 24 1011.1 13.4 42.7 41.1 80.2 212.1 234.8 815.9
07/05 02:00 25.9 81 19.61 22.4 20 28 1011.2 13.4 42.2 40.7 79.0 209.1 231.1 803.0
07/05 01:50 25.9 82 19.85 22.6 19 22 1011.2 13.4 42.7 41.1 80.2 212.1 234.9 815.9
07/05 01:40 25.8 83 19.98 22.7 17 19 1011.2 13.4 43.0 41.4 80.9 214.1 237.2 824.1
07/05 01:30 25.9 82 19.85 22.6 19 26 1011.3 13.4 42.7 41.1 80.2 212.1 234.9 816.0
07/05 01:20 25.9 83 20.09 22.8 15 19 1011.4 13.4 43.2 41.6 81.3 215.2 238.6 829.1
07/05 01:10 25.9 83 20.09 22.8 20 22 1011.4 13.4 43.2 41.6 81.3 215.2 238.6 829.1
07/05 01:00 25.9 83 20.09 22.8 17 24 1011.5 13.4 43.2 41.6 81.3 215.2 238.7 829.1
07/05 00:50 25.7 84 20.11 22.8 17 19 1011.6 13.4 43.3 41.8 81.6 216.1 239.6 832.5
07/05 00:40 25.6 85 20.24 22.9 17 19 1011.6 13.4 43.5 42.1 82.4 218.0 242.0 840.7
07/05 00:30 25.5 86 20.36 23 17 24 1011.7 13.4 43.8 42.3 83.1 219.9 244.2 848.5
07/05 00:20 25.3 86 20.13 22.8 15 17 1011.7 13.4 43.3 42.0 82.2 217.5 241.3 838.1
07/05 00:10 25.4 86 20.25 22.9 17 19 1011.8 13.4 43.6 42.2 82.7 218.8 242.8 843.6
07/05 00:00 25.5 85 20.12 22.8 20 24 1011.8 13.4 43.3 41.9 81.9 216.8 240.5 835.3
06/05 23:50 25.5 85 20.12 22.8 22 24 1011.8 13.4 43.3 41.9 81.9 216.8 240.5 835.3
06/05 23:40 25.5 85 20.12 22.8 17 19 1011.8 13.4 43.3 41.9 81.9 216.8 240.5 835.3
06/05 23:30 25.4 85 20.01 22.7 19 24 1011.9 13.4 43.1 41.7 81.5 215.7 239.1 830.5
06/05 23:20 25.4 85 20.01 22.7 19 24 1012 13.4 43.1 41.7 81.5 215.7 239.1 830.5
06/05 23:10 25.4 84 19.78 22.5 17 19 1012.1 13.4 42.6 41.3 80.4 212.8 235.5 818.0
06/05 23:00 25.1 87 20.14 22.8 15 20 1012.1 13.4 43.4 42.1 82.5 218.3 242.1 841.1
06/05 22:50 25 87 20.03 22.7 19 19 1012.2 13.4 43.2 42.0 82.1 217.2 240.7 836.2
06/05 22:40 24.9 87 19.91 22.6 17 19 1012.2 13.4 42.9 41.8 81.6 215.9 239.1 830.7
06/05 22:30 24.3 88 19.47 22.2 13 15 1012.4 13.4 42.0 41.2 80.1 212.0 234.1 813.2
06/05 22:20 24.1 89 19.47 22.2 13 15 1012.5 13.4 42.1 41.4 80.3 212.6 234.8 815.4
06/05 22:10 24.2 90 19.8 22.5 13 13 1012.6 13.4 42.8 42.0 81.8 216.6 239.7 832.6
06/05 22:00 24.2 90 19.8 22.5 13 15 1012.7 13.4 42.8 42.0 81.8 216.6 239.7 832.7
06/05 21:50 24.2 90 19.8 22.5 15 17 1012.7 13.4 42.8 42.0 81.8 216.6 239.7 832.7
06/05 21:40 24.2 92 20.24 22.8 13 13 1012.7 13.4 43.7 42.8 84.0 222.3 246.8 857.2
06/05 21:30 24.1 93 20.35 22.9 11 15 1012.8 13.4 43.9 43.1 84.7 224.1 248.9 864.6
06/05 21:20 24.2 94 20.68 23.2 11 11 1012.9 13.4 44.6 43.7 86.2 228.2 254.0 882.1
06/05 21:10 24 94 20.45 23 6 7 1012.9 13.4 44.2 43.4 85.3 225.7 250.9 871.4
06/05 21:00 24 94 20.45 23 9 13 1012.9 13.4 44.2 43.4 85.3 225.7 250.9 871.4
06/05 20:50 23.9 93 20.12 22.7 11 15 1012.8 13.4 43.5 42.7 83.8 221.7 245.9 853.9
06/05 20:40 23.9 94 20.33 22.9 19 20 1012.9 12.4 43.9 43.2 84.8 224.4 249.3 865.8
06/05 20:30 24.1 95 20.79 23.2 22 44 1012.6 8.2 44.9 44.0 86.9 229.9 256.1 889.3
06/05 20:20 24.2 95 20.9 23.3 22 26 1012.7 6.4 45.1 44.1 87.3 231.1 257.5 894.4
06/05 20:10 24.2 95 20.9 23.3 15 17 1012.4 6 45.1 44.1 87.3 231.0 257.5 894.3
06/05 20:00 24.1 95 20.79 23.2 13 17 1012.3 5.6 44.9 44.0 86.8 229.8 256.0 889.2
06/05 19:50 24.1 95 20.79 23.2 15 17 1012.2 5.6 44.9 44.0 86.8 229.8 256.0 889.1
06/05 19:40 24.3 94 20.8 23.3 15 15 1012.1 5 44.9 43.9 86.6 229.3 255.4 887.2
06/05 19:30 24.6 93 20.93 23.4 7 13 1012 5 45.1 44.0 86.9 230.1 256.5 890.9
06/05 19:20 24.5 93 20.81 23.3 7 9 1011.7 5 44.9 43.8 86.4 228.8 254.8 885.2
06/05 19:10 24.4 93 20.7 23.2 11 13 1011.6 5 44.7 43.6 86.0 227.6 253.4 880.1
06/05 19:00 24.3 93 20.58 23.1 9 11 1011.5 5 44.4 43.4 85.5 226.3 251.8 874.4
06/05 18:50 24.2 93 20.46 23 7 9 1011.4 5 44.2 43.2 85.0 225.0 250.1 868.8
06/05 18:40 24.5 92 20.59 23.1 9 9 1011.3 5 44.4 43.3 85.3 225.8 251.2 872.5
06/05 18:30 24.6 91 20.48 23 13 17 1011.2 5 44.2 43.0 84.6 224.0 249.1 865.1
06/05 18:20 24.5 90 20.14 22.7 13 15 1011.1 4.8 43.5 42.4 83.1 219.9 243.9 847.3
06/05 18:10 24.3 88 19.47 22.2 11 13 1011.1 4.8 42.1 41.2 80.0 211.8 233.9 812.5
06/05 18:00 24.1 89 19.47 22.2 19 26 1011 4.8 42.1 41.3 80.2 212.3 234.6 814.6
06/05 17:50 23.9 91 19.69 22.3 22 28 1011 4.8 42.6 41.8 81.5 215.7 238.7 828.9
06/05 17:40 24.2 93 20.46 23 17 19 1011.1 4.8 44.2 43.2 85.0 225.0 250.1 868.6
06/05 17:30 24.2 94 20.68 23.2 15 20 1011 4.8 44.6 43.6 86.1 227.8 253.6 881.0
06/05 17:20 24.2 94 20.68 23.2 13 15 1010.9 4.8 44.7 43.6 86.1 227.8 253.6 880.9
06/05 17:10 24.2 94 20.68 23.2 15 17 1010.8 4.8 44.7 43.6 86.1 227.8 253.6 880.8
06/05 17:00 23.9 94 20.33 22.9 19 22 1010.8 4.8 43.9 43.1 84.7 224.1 249.0 864.6
06/05 16:50 24.1 94 20.57 23.1 22 24 1010.8 4.8 44.4 43.4 85.6 226.7 252.2 875.8
06/05 16:40 24.5 95 21.26 23.6 15 15 1010.7 4.8 45.9 44.6 88.6 234.6 262.0 910.1
06/05 16:30 24.4 94 20.92 23.4 19 22 1010.6 4.8 45.1 44.0 87.0 230.4 256.8 891.9
06/05 16:20 24.6 95 21.38 23.7 20 22 1010.5 4.4 46.1 44.8 89.1 235.9 263.6 915.6
06/05 16:10 24.6 94 21.16 23.6 26 28 1010.4 4.4 45.6 44.3 88.0 232.9 260.0 903.0
06/05 16:00 24.7 93 21.05 23.5 20 30 1010.2 4.2 45.4 44.1 87.3 231.1 257.8 895.5
06/05 15:50 25.2 93 21.65 24 15 17 1010.1 3.4 46.6 45.0 89.7 237.5 265.8 923.4
06/05 15:40 25 92 21.18 23.6 17 19 1010 3.4 45.6 44.1 87.6 231.9 258.8 899.1
06/05 15:30 24.7 93 21.05 23.5 17 22 1010 3.4 45.4 44.1 87.3 231.1 257.8 895.4
06/05 15:20 24.3 93 20.58 23.1 15 19 1010.1 3.4 44.4 43.3 85.4 226.1 251.5 873.6
06/05 15:10 24.2 94 20.68 23.2 15 19 1010.1 3.2 44.7 43.6 86.0 227.7 253.5 880.4
06/05 15:00 24.2 93 20.46 23 20 32 1010.2 3.2 44.2 43.1 84.9 224.8 249.9 868.1
06/05 14:50 24.4 93 20.7 23.2 24 28 1010.3 2.4 44.7 43.5 85.9 227.4 253.2 879.3
06/05 14:40 24.8 94 21.4 23.8 30 35 1010.3 1.6 46.1 44.7 88.9 235.5 263.2 914.2
06/05 14:30 24.8 94 21.4 23.8 15 22 1010.1 0.4 46.1 44.7 88.9 235.4 263.2 914.1
06/05 14:20 24.7 94 21.28 23.7 15 17 1010.2 0.4 45.9 44.5 88.5 234.2 261.6 908.5
06/05 14:10 24.7 91 20.6 23.1 17 20 1010.3 0 44.4 43.2 85.1 225.2 250.5 870.2
06/05 14:00 25.7 85 20.35 23 24 41 1010.3 0 43.8 42.2 82.7 218.9 243.2 844.9
06/05 13:50 26.3 79 19.56 22.4 32 35 1010.3 0 42.0 40.3 78.3 207.2 229.0 795.6
06/05 13:40 28.9 69 19.71 22.6 28 32 1010.2 0 42.1 39.4 76.3 202.1 223.4 776.5
06/05 13:30 28.7 71 20.06 22.9 26 33 1010.2 0 42.8 40.1 78.2 206.9 229.2 796.7
06/05 13:20 28.5 73 20.41 23.2 26 28 1010.3 0 43.6 40.9 80.0 211.7 235.1 817.3
06/05 13:10 29.7 69 20.59 23.6 28 33 1010.4 0 43.8 40.6 79.6 210.6 234.1 813.9
06/05 13:00 29.1 70 20.22 23.1 32 46 1010.5 0 43.1 40.2 78.5 207.8 230.4 801.0
06/05 12:50 29.3 70 20.44 23.3 30 33 1010.7 0 43.6 40.6 79.3 209.9 233.2 810.5
06/05 12:40 27.3 79 20.67 23.3 37 43 1010.8 0 44.3 42.0 82.5 218.5 243.1 844.6
06/05 12:30 29.6 67 19.89 22.8 32 44 1010.9 0 42.4 39.4 76.5 202.5 224.1 779.0
06/05 12:20 30 69 20.93 23.7 30 39 1011.1 0 44.5 41.1 80.9 214.1 238.4 828.8
06/05 12:10 29.5 69 20.37 23.4 32 35 1011.2 0 43.4 40.4 78.8 208.6 231.6 805.0
06/05 12:00 29.5 67 19.78 22.7 32 43 1011.3 0 42.1 39.3 76.1 201.5 222.8 774.6
06/05 11:50 29.3 68 19.86 22.8 32 41 1011.4 0 42.3 39.5 76.7 203.0 224.6 780.8
06/05 11:40 28.9 69 19.71 22.6 35 41 1011.5 0 42.1 39.4 76.4 202.3 223.6 777.2
06/05 11:30 30.1 65 19.82 23 30 41 1011.6 0 42.2 39.1 75.7 200.4 221.7 770.7
06/05 11:20 28.9 70 20 22.9 33 41 1011.8 0 42.7 40.0 77.8 205.8 228.0 792.4
06/05 11:10 29.2 68 19.75 22.7 33 37 1011.8 0 42.1 39.4 76.3 202.0 223.3 776.3

Last Refresh: 07-May-2026 03:46:21

Bureau of Meteorology